sensor_id;sensor_type;location;lat;lon;timestamp;noise_LAeq;noise_LA_min;noise_LA_max;noise_LA01;noise_LA95
70077;Laerm;57448;51.490;5.436;2022-12-29T00:02:35;48.90;40.92;64.62;;
70077;Laerm;57448;51.490;5.436;2022-12-29T00:05:25;49.18;39.84;71.49;;
70077;Laerm;57448;51.490;5.436;2022-12-29T00:08:16;50.73;41.99;71.53;;
70077;Laerm;57448;51.490;5.436;2022-12-29T00:11:07;50.52;42.34;65.54;;
70077;Laerm;57448;51.490;5.436;2022-12-29T00:13:58;49.27;42.53;65.06;;
70077;Laerm;57448;51.490;5.436;2022-12-29T00:17:07;48.21;41.17;67.96;;
70077;Laerm;57448;51.490;5.436;2022-12-29T00:19:58;46.33;41.04;60.67;;
70077;Laerm;57448;51.490;5.436;2022-12-29T00:23:07;45.47;39.80;60.91;;
70077;Laerm;57448;51.490;5.436;2022-12-29T00:26:16;44.63;40.31;63.44;;
70077;Laerm;57448;51.490;5.436;2022-12-29T00:29:25;48.82;41.06;62.24;;
70077;Laerm;57448;51.490;5.436;2022-12-29T00:32:34;44.71;39.39;54.88;;
70077;Laerm;57448;51.490;5.436;2022-12-29T00:35:44;42.73;38.59;50.39;;
70077;Laerm;57448;51.490;5.436;2022-12-29T00:38:36;41.61;36.83;52.03;;
70077;Laerm;57448;51.490;5.436;2022-12-29T00:41:45;41.80;36.19;60.57;;
70077;Laerm;57448;51.490;5.436;2022-12-29T00:44:53;45.31;35.95;69.61;;
70077;Laerm;57448;51.490;5.436;2022-12-29T00:47:45;43.03;37.63;54.16;;
70077;Laerm;57448;51.490;5.436;2022-12-29T00:50:36;43.52;37.94;54.95;;
70077;Laerm;57448;51.490;5.436;2022-12-29T00:53:26;46.00;41.05;55.89;;
70077;Laerm;57448;51.490;5.436;2022-12-29T00:56:17;43.19;36.98;60.40;;
70077;Laerm;57448;51.490;5.436;2022-12-29T00:59:08;43.61;37.53;60.95;;
70077;Laerm;57448;51.490;5.436;2022-12-29T01:01:59;42.87;38.17;51.23;;
70077;Laerm;57448;51.490;5.436;2022-12-29T01:04:51;41.81;36.82;53.72;;
70077;Laerm;57448;51.490;5.436;2022-12-29T01:07:42;44.25;37.67;58.20;;
70077;Laerm;57448;51.490;5.436;2022-12-29T01:10:32;44.85;37.87;61.64;;
70077;Laerm;57448;51.490;5.436;2022-12-29T01:13:22;43.82;36.76;63.19;;
70077;Laerm;57448;51.490;5.436;2022-12-29T01:16:13;45.94;36.95;67.39;;
70077;Laerm;57448;51.490;5.436;2022-12-29T01:19:04;44.07;37.80;55.77;;
70077;Laerm;57448;51.490;5.436;2022-12-29T01:21:56;42.29;36.65;60.11;;
70077;Laerm;57448;51.490;5.436;2022-12-29T01:24:47;42.55;36.62;54.19;;
70077;Laerm;57448;51.490;5.436;2022-12-29T01:27:37;44.04;37.76;66.88;;
70077;Laerm;57448;51.490;5.436;2022-12-29T01:30:28;41.98;37.46;54.46;;
70077;Laerm;57448;51.490;5.436;2022-12-29T01:33:19;43.43;36.48;54.36;;
70077;Laerm;57448;51.490;5.436;2022-12-29T01:36:10;48.09;37.90;71.61;;
70077;Laerm;57448;51.490;5.436;2022-12-29T01:39:03;43.62;36.94;57.37;;
70077;Laerm;57448;51.490;5.436;2022-12-29T01:41:53;47.03;38.78;57.70;;
70077;Laerm;57448;51.490;5.436;2022-12-29T01:44:49;43.98;37.34;67.89;;
70077;Laerm;57448;51.490;5.436;2022-12-29T01:47:40;46.88;36.44;73.84;;
70077;Laerm;57448;51.490;5.436;2022-12-29T01:50:35;44.21;37.14;63.38;;
70077;Laerm;57448;51.490;5.436;2022-12-29T01:53:27;45.52;36.66;65.03;;
70077;Laerm;57448;51.490;5.436;2022-12-29T01:56:21;43.75;36.87;59.44;;
70077;Laerm;57448;51.490;5.436;2022-12-29T01:59:12;44.38;38.36;60.79;;
70077;Laerm;57448;51.490;5.436;2022-12-29T02:02:05;47.36;36.31;69.21;;
70077;Laerm;57448;51.490;5.436;2022-12-29T02:04:56;47.88;36.96;68.63;;
70077;Laerm;57448;51.490;5.436;2022-12-29T02:07:48;43.99;36.15;61.86;;
70077;Laerm;57448;51.490;5.436;2022-12-29T02:10:41;47.01;35.85;65.75;;
70077;Laerm;57448;51.490;5.436;2022-12-29T02:13:34;50.75;39.55;70.92;;
70077;Laerm;57448;51.490;5.436;2022-12-29T02:16:30;46.10;39.57;61.50;;
70077;Laerm;57448;51.490;5.436;2022-12-29T02:19:35;51.33;38.75;73.09;;
70077;Laerm;57448;51.490;5.436;2022-12-29T02:22:34;49.11;41.46;67.01;;
70077;Laerm;57448;51.490;5.436;2022-12-29T02:25:37;52.54;41.31;72.95;;
70077;Laerm;57448;51.490;5.436;2022-12-29T02:31:45;52.93;40.59;76.09;;
70077;Laerm;57448;51.490;5.436;2022-12-29T02:34:39;47.54;39.80;62.79;;
70077;Laerm;57448;51.490;5.436;2022-12-29T02:37:38;47.50;40.07;67.47;;
70077;Laerm;57448;51.490;5.436;2022-12-29T02:40:32;49.72;39.61;65.31;;
70077;Laerm;57448;51.490;5.436;2022-12-29T02:43:26;49.49;39.80;68.78;;
70077;Laerm;57448;51.490;5.436;2022-12-29T02:46:25;51.42;38.83;74.15;;
70077;Laerm;57448;51.490;5.436;2022-12-29T02:49:21;49.01;38.50;62.06;;
70077;Laerm;57448;51.490;5.436;2022-12-29T02:52:14;45.97;40.20;65.86;;
70077;Laerm;57448;51.490;5.436;2022-12-29T02:55:07;46.89;38.21;61.79;;
70077;Laerm;57448;51.490;5.436;2022-12-29T02:58:06;49.77;40.03;70.69;;
70077;Laerm;57448;51.490;5.436;2022-12-29T03:01:08;45.69;39.32;57.66;;
70077;Laerm;57448;51.490;5.436;2022-12-29T03:04:09;54.46;40.32;81.45;;
70077;Laerm;57448;51.490;5.436;2022-12-29T03:07:06;47.54;39.28;63.29;;
70077;Laerm;57448;51.490;5.436;2022-12-29T03:10:00;44.99;38.33;58.66;;
70077;Laerm;57448;51.490;5.436;2022-12-29T03:12:54;45.65;36.60;62.78;;
70077;Laerm;57448;51.490;5.436;2022-12-29T03:16:05;50.34;41.06;75.23;;
70077;Laerm;57448;51.490;5.436;2022-12-29T03:18:59;46.48;40.10;59.09;;
70077;Laerm;57448;51.490;5.436;2022-12-29T03:21:52;44.75;38.91;56.79;;
70077;Laerm;57448;51.490;5.436;2022-12-29T03:25:05;48.04;39.17;65.83;;
70077;Laerm;57448;51.490;5.436;2022-12-29T03:28:00;44.20;39.32;57.05;;
70077;Laerm;57448;51.490;5.436;2022-12-29T03:30:51;46.16;40.38;58.94;;
70077;Laerm;57448;51.490;5.436;2022-12-29T03:33:42;43.32;38.22;54.04;;
70077;Laerm;57448;51.490;5.436;2022-12-29T03:36:36;45.98;38.58;58.23;;
70077;Laerm;57448;51.490;5.436;2022-12-29T03:39:29;44.39;39.55;57.97;;
70077;Laerm;57448;51.490;5.436;2022-12-29T03:42:21;47.43;40.43;63.86;;
70077;Laerm;57448;51.490;5.436;2022-12-29T03:45:14;46.71;40.05;59.49;;
70077;Laerm;57448;51.490;5.436;2022-12-29T03:48:05;47.21;39.33;65.71;;
70077;Laerm;57448;51.490;5.436;2022-12-29T03:50:55;47.57;39.52;67.27;;
70077;Laerm;57448;51.490;5.436;2022-12-29T03:53:46;47.10;40.61;68.80;;
70077;Laerm;57448;51.490;5.436;2022-12-29T03:56:37;46.52;40.28;63.02;;
70077;Laerm;57448;51.490;5.436;2022-12-29T03:59:29;45.88;40.82;66.35;;
70077;Laerm;57448;51.490;5.436;2022-12-29T04:02:20;46.46;40.48;66.72;;
70077;Laerm;57448;51.490;5.436;2022-12-29T04:05:11;47.19;40.91;69.23;;
70077;Laerm;57448;51.490;5.436;2022-12-29T04:08:01;50.43;40.52;71.94;;
70077;Laerm;57448;51.490;5.436;2022-12-29T04:10:52;49.94;44.41;66.26;;
70077;Laerm;57448;51.490;5.436;2022-12-29T04:13:43;49.02;41.74;75.00;;
70077;Laerm;57448;51.490;5.436;2022-12-29T04:16:35;48.55;42.62;59.23;;
70077;Laerm;57448;51.490;5.436;2022-12-29T04:19:28;47.32;42.38;64.48;;
70077;Laerm;57448;51.490;5.436;2022-12-29T04:22:18;46.93;42.60;55.33;;
70077;Laerm;57448;51.490;5.436;2022-12-29T04:25:09;48.18;42.34;56.03;;
70077;Laerm;57448;51.490;5.436;2022-12-29T04:28:00;46.80;40.71;61.46;;
70077;Laerm;57448;51.490;5.436;2022-12-29T04:30:51;47.60;42.72;55.99;;
70077;Laerm;57448;51.490;5.436;2022-12-29T04:33:43;46.54;41.57;62.22;;
70077;Laerm;57448;51.490;5.436;2022-12-29T04:36:33;48.81;41.46;67.01;;
70077;Laerm;57448;51.490;5.436;2022-12-29T04:39:24;47.47;43.39;55.98;;
70077;Laerm;57448;51.490;5.436;2022-12-29T04:42:15;47.62;42.60;58.99;;
70077;Laerm;57448;51.490;5.436;2022-12-29T04:45:06;49.58;44.60;62.22;;
70077;Laerm;57448;51.490;5.436;2022-12-29T04:47:57;50.45;44.93;68.09;;
70077;Laerm;57448;51.490;5.436;2022-12-29T04:50:49;49.27;44.69;62.22;;
70077;Laerm;57448;51.490;5.436;2022-12-29T04:53:40;48.34;42.98;58.73;;
70077;Laerm;57448;51.490;5.436;2022-12-29T04:56:30;48.21;43.24;56.00;;
70077;Laerm;57448;51.490;5.436;2022-12-29T04:59:21;48.92;44.21;57.67;;
70077;Laerm;57448;51.490;5.436;2022-12-29T05:02:12;49.56;43.64;63.48;;
70077;Laerm;57448;51.490;5.436;2022-12-29T05:05:03;50.64;45.67;66.87;;
70077;Laerm;57448;51.490;5.436;2022-12-29T05:07:55;48.43;43.13;55.66;;
70077;Laerm;57448;51.490;5.436;2022-12-29T05:10:45;49.15;44.04;61.97;;
70077;Laerm;57448;51.490;5.436;2022-12-29T05:13:36;48.78;44.63;58.48;;
70077;Laerm;57448;51.490;5.436;2022-12-29T05:16:27;48.12;42.48;63.70;;
70077;Laerm;57448;51.490;5.436;2022-12-29T05:19:18;49.53;43.09;61.91;;
70077;Laerm;57448;51.490;5.436;2022-12-29T05:22:08;48.15;44.20;55.33;;
70077;Laerm;57448;51.490;5.436;2022-12-29T05:25:00;48.27;42.87;60.01;;
70077;Laerm;57448;51.490;5.436;2022-12-29T05:27:51;48.95;44.46;68.09;;
70077;Laerm;57448;51.490;5.436;2022-12-29T05:30:42;49.09;43.93;68.14;;
70077;Laerm;57448;51.490;5.436;2022-12-29T05:33:33;48.03;44.85;57.78;;
70077;Laerm;57448;51.490;5.436;2022-12-29T05:36:23;48.66;44.33;56.61;;
70077;Laerm;57448;51.490;5.436;2022-12-29T05:39:14;49.71;44.24;58.94;;
70077;Laerm;57448;51.490;5.436;2022-12-29T05:42:06;50.16;46.77;57.31;;
70077;Laerm;57448;51.490;5.436;2022-12-29T05:44:57;51.01;46.99;61.70;;
70077;Laerm;57448;51.490;5.436;2022-12-29T05:47:47;51.91;46.43;63.21;;
70077;Laerm;57448;51.490;5.436;2022-12-29T05:50:38;51.10;45.49;70.08;;
70077;Laerm;57448;51.490;5.436;2022-12-29T05:53:29;52.30;47.21;74.23;;
70077;Laerm;57448;51.490;5.436;2022-12-29T05:56:19;54.24;45.24;75.37;;
70077;Laerm;57448;51.490;5.436;2022-12-29T05:59:11;51.12;45.22;69.81;;
70077;Laerm;57448;51.490;5.436;2022-12-29T06:02:02;49.03;45.02;59.63;;
70077;Laerm;57448;51.490;5.436;2022-12-29T06:04:53;48.81;45.03;56.64;;
70077;Laerm;57448;51.490;5.436;2022-12-29T06:07:43;50.38;44.40;68.83;;
70077;Laerm;57448;51.490;5.436;2022-12-29T06:10:35;51.06;46.20;62.14;;
70077;Laerm;57448;51.490;5.436;2022-12-29T06:13:25;51.61;46.56;70.34;;
70077;Laerm;57448;51.490;5.436;2022-12-29T06:16:18;52.64;47.33;67.55;;
70077;Laerm;57448;51.490;5.436;2022-12-29T06:19:09;50.29;46.41;57.94;;
70077;Laerm;57448;51.490;5.436;2022-12-29T06:21:59;50.88;46.72;60.48;;
70077;Laerm;57448;51.490;5.436;2022-12-29T06:24:50;51.35;46.62;60.08;;
70077;Laerm;57448;51.490;5.436;2022-12-29T06:27:41;49.87;45.69;66.74;;
70077;Laerm;57448;51.490;5.436;2022-12-29T06:30:32;53.47;48.83;65.63;;
70077;Laerm;57448;51.490;5.436;2022-12-29T06:33:24;51.49;46.39;67.33;;
70077;Laerm;57448;51.490;5.436;2022-12-29T06:36:15;53.18;48.89;60.25;;
70077;Laerm;57448;51.490;5.436;2022-12-29T06:39:06;55.53;47.46;74.19;;
70077;Laerm;57448;51.490;5.436;2022-12-29T06:41:56;55.53;49.62;69.37;;
70077;Laerm;57448;51.490;5.436;2022-12-29T06:44:47;55.17;48.61;72.83;;
70077;Laerm;57448;51.490;5.436;2022-12-29T06:47:38;54.62;47.72;75.98;;
70077;Laerm;57448;51.490;5.436;2022-12-29T06:50:30;55.87;47.89;78.93;;
70077;Laerm;57448;51.490;5.436;2022-12-29T06:53:20;54.02;47.46;68.08;;
70077;Laerm;57448;51.490;5.436;2022-12-29T06:56:11;52.36;48.04;64.85;;
70077;Laerm;57448;51.490;5.436;2022-12-29T06:59:02;56.21;47.48;73.49;;
70077;Laerm;57448;51.490;5.436;2022-12-29T07:01:53;54.81;48.65;68.87;;
70077;Laerm;57448;51.490;5.436;2022-12-29T07:04:43;54.93;45.95;71.47;;
70077;Laerm;57448;51.490;5.436;2022-12-29T07:07:35;55.27;47.92;67.57;;
70077;Laerm;57448;51.490;5.436;2022-12-29T07:10:26;54.16;47.24;71.02;;
70077;Laerm;57448;51.490;5.436;2022-12-29T07:13:17;53.55;48.57;67.59;;
70077;Laerm;57448;51.490;5.436;2022-12-29T07:16:08;53.35;48.57;68.22;;
70077;Laerm;57448;51.490;5.436;2022-12-29T07:18:59;54.08;47.54;68.95;;
70077;Laerm;57448;51.490;5.436;2022-12-29T07:21:50;55.11;48.08;70.61;;
70077;Laerm;57448;51.490;5.436;2022-12-29T07:24:42;52.46;48.04;61.76;;
70077;Laerm;57448;51.490;5.436;2022-12-29T07:27:33;55.21;47.63;72.54;;
70077;Laerm;57448;51.490;5.436;2022-12-29T07:30:23;53.92;47.49;70.56;;
70077;Laerm;57448;51.490;5.436;2022-12-29T07:33:14;52.31;47.44;63.95;;
70077;Laerm;57448;51.490;5.436;2022-12-29T07:36:05;53.84;48.67;69.83;;
70077;Laerm;57448;51.490;5.436;2022-12-29T07:38:56;52.20;47.81;57.78;;
70077;Laerm;57448;51.490;5.436;2022-12-29T07:41:48;52.38;48.18;58.16;;
70077;Laerm;57448;51.490;5.436;2022-12-29T07:44:39;51.91;47.83;62.12;;
70077;Laerm;57448;51.490;5.436;2022-12-29T07:47:29;52.96;47.79;66.51;;
70077;Laerm;57448;51.490;5.436;2022-12-29T07:50:20;53.00;48.01;67.31;;
70077;Laerm;57448;51.490;5.436;2022-12-29T07:53:11;53.68;47.55;71.82;;
70077;Laerm;57448;51.490;5.436;2022-12-29T07:56:02;50.98;46.80;59.64;;
70077;Laerm;57448;51.490;5.436;2022-12-29T07:58:54;50.76;45.56;61.30;;
70077;Laerm;57448;51.490;5.436;2022-12-29T08:01:45;50.22;46.15;60.56;;
70077;Laerm;57448;51.490;5.436;2022-12-29T08:04:35;50.98;46.49;58.44;;
70077;Laerm;57448;51.490;5.436;2022-12-29T08:07:26;54.51;46.28;66.39;;
70077;Laerm;57448;51.490;5.436;2022-12-29T08:10:17;53.77;48.19;72.57;;
70077;Laerm;57448;51.490;5.436;2022-12-29T08:13:08;52.23;47.13;69.58;;
70077;Laerm;57448;51.490;5.436;2022-12-29T08:16:00;56.17;48.29;72.89;;
70077;Laerm;57448;51.490;5.436;2022-12-29T08:18:50;53.54;47.80;68.44;;
70077;Laerm;57448;51.490;5.436;2022-12-29T08:21:41;51.66;47.30;60.21;;
70077;Laerm;57448;51.490;5.436;2022-12-29T08:24:32;53.74;48.76;67.10;;
70077;Laerm;57448;51.490;5.436;2022-12-29T08:27:23;57.29;49.71;80.29;;
70077;Laerm;57448;51.490;5.436;2022-12-29T08:30:13;53.81;47.54;68.58;;
70077;Laerm;57448;51.490;5.436;2022-12-29T08:33:05;55.58;49.46;70.59;;
70077;Laerm;57448;51.490;5.436;2022-12-29T08:35:58;57.18;49.21;74.58;;
70077;Laerm;57448;51.490;5.436;2022-12-29T08:38:49;55.87;48.73;78.22;;
70077;Laerm;57448;51.490;5.436;2022-12-29T08:41:40;53.41;48.36;69.15;;
70077;Laerm;57448;51.490;5.436;2022-12-29T08:44:30;53.26;47.33;68.77;;
70077;Laerm;57448;51.490;5.436;2022-12-29T08:47:21;53.07;48.07;66.23;;
70077;Laerm;57448;51.490;5.436;2022-12-29T08:50:13;52.56;47.88;64.30;;
70077;Laerm;57448;51.490;5.436;2022-12-29T08:53:04;52.77;47.76;67.84;;
70077;Laerm;57448;51.490;5.436;2022-12-29T08:55:56;51.58;47.73;59.51;;
70077;Laerm;57448;51.490;5.436;2022-12-29T08:58:47;52.61;47.43;69.57;;
70077;Laerm;57448;51.490;5.436;2022-12-29T09:01:37;53.30;47.97;68.40;;
70077;Laerm;57448;51.490;5.436;2022-12-29T09:04:29;54.79;49.03;66.68;;
70077;Laerm;57448;51.490;5.436;2022-12-29T09:07:21;54.22;48.23;67.41;;
70077;Laerm;57448;51.490;5.436;2022-12-29T09:10:12;51.87;47.40;64.77;;
70077;Laerm;57448;51.490;5.436;2022-12-29T09:13:03;51.66;47.24;65.91;;
70077;Laerm;57448;51.490;5.436;2022-12-29T09:15:57;54.08;47.87;64.29;;
70077;Laerm;57448;51.490;5.436;2022-12-29T09:18:48;56.50;47.75;72.88;;
70077;Laerm;57448;51.490;5.436;2022-12-29T09:21:39;54.86;49.05;75.03;;
70077;Laerm;57448;51.490;5.436;2022-12-29T09:24:31;52.76;48.21;69.16;;
70077;Laerm;57448;51.490;5.436;2022-12-29T09:27:21;58.16;48.15;84.48;;
70077;Laerm;57448;51.490;5.436;2022-12-29T09:30:12;58.36;49.57;79.75;;
70077;Laerm;57448;51.490;5.436;2022-12-29T09:33:04;60.81;49.47;80.29;;
70077;Laerm;57448;51.490;5.436;2022-12-29T09:35:55;53.67;47.77;71.70;;
70077;Laerm;57448;51.490;5.436;2022-12-29T09:38:46;54.93;47.83;68.93;;
70077;Laerm;57448;51.490;5.436;2022-12-29T09:41:39;55.27;50.56;73.44;;
70077;Laerm;57448;51.490;5.436;2022-12-29T09:44:38;56.22;49.86;73.98;;
70077;Laerm;57448;51.490;5.436;2022-12-29T09:47:33;58.28;50.24;75.07;;
70077;Laerm;57448;51.490;5.436;2022-12-29T09:50:24;53.03;48.99;66.02;;
70077;Laerm;57448;51.490;5.436;2022-12-29T09:53:20;54.16;48.35;69.04;;
70077;Laerm;57448;51.490;5.436;2022-12-29T09:56:13;54.07;48.91;65.11;;
70077;Laerm;57448;51.490;5.436;2022-12-29T09:59:08;54.24;48.45;71.75;;
70077;Laerm;57448;51.490;5.436;2022-12-29T10:02:04;55.55;49.95;68.17;;
70077;Laerm;57448;51.490;5.436;2022-12-29T10:05:01;61.06;52.20;78.05;;
70077;Laerm;57448;51.490;5.436;2022-12-29T10:07:52;56.91;50.91;71.81;;
70077;Laerm;57448;51.490;5.436;2022-12-29T10:10:47;56.37;51.70;68.43;;
70077;Laerm;57448;51.490;5.436;2022-12-29T10:13:43;55.18;50.39;73.21;;
70077;Laerm;57448;51.490;5.436;2022-12-29T10:16:43;53.18;48.84;63.38;;
70077;Laerm;57448;51.490;5.436;2022-12-29T10:19:41;56.00;48.81;70.85;;
70077;Laerm;57448;51.490;5.436;2022-12-29T10:22:38;57.11;50.38;69.59;;
70077;Laerm;57448;51.490;5.436;2022-12-29T10:25:34;54.30;49.85;63.21;;
70077;Laerm;57448;51.490;5.436;2022-12-29T10:28:33;54.58;49.66;67.61;;
70077;Laerm;57448;51.490;5.436;2022-12-29T10:31:25;57.44;50.14;72.42;;
70077;Laerm;57448;51.490;5.436;2022-12-29T10:34:22;54.63;49.20;74.65;;
70077;Laerm;57448;51.490;5.436;2022-12-29T10:37:18;54.36;49.76;70.37;;
70077;Laerm;57448;51.490;5.436;2022-12-29T10:40:17;55.28;50.17;70.20;;
70077;Laerm;57448;51.490;5.436;2022-12-29T10:43:13;54.43;49.76;67.30;;
70077;Laerm;57448;51.490;5.436;2022-12-29T10:46:09;54.83;50.13;68.39;;
70077;Laerm;57448;51.490;5.436;2022-12-29T10:49:00;54.86;49.17;75.12;;
70077;Laerm;57448;51.490;5.436;2022-12-29T10:51:54;54.38;50.48;69.73;;
70077;Laerm;57448;51.490;5.436;2022-12-29T10:54:46;56.62;49.62;72.41;;
70077;Laerm;57448;51.490;5.436;2022-12-29T10:57:39;53.76;48.27;65.84;;
70077;Laerm;57448;51.490;5.436;2022-12-29T11:00:33;55.35;49.99;78.15;;
70077;Laerm;57448;51.490;5.436;2022-12-29T11:03:30;53.77;49.67;61.92;;
70077;Laerm;57448;51.490;5.436;2022-12-29T11:06:26;54.24;49.54;68.51;;
70077;Laerm;57448;51.490;5.436;2022-12-29T11:09:21;53.41;49.50;65.21;;
70077;Laerm;57448;51.490;5.436;2022-12-29T11:12:21;53.91;49.12;58.77;;
70077;Laerm;57448;51.490;5.436;2022-12-29T11:15:14;53.29;49.93;62.13;;
70077;Laerm;57448;51.490;5.436;2022-12-29T11:18:05;53.15;48.73;60.05;;
70077;Laerm;57448;51.490;5.436;2022-12-29T11:21:10;53.84;50.18;68.89;;
70077;Laerm;57448;51.490;5.436;2022-12-29T11:24:18;54.45;50.71;60.11;;
70077;Laerm;57448;51.490;5.436;2022-12-29T11:27:13;55.37;50.74;76.38;;
70077;Laerm;57448;51.490;5.436;2022-12-29T11:30:11;53.67;48.41;64.80;;
70077;Laerm;57448;51.490;5.436;2022-12-29T11:33:12;54.81;49.81;77.81;;
70077;Laerm;57448;51.490;5.436;2022-12-29T11:36:04;56.71;50.09;78.83;;
70077;Laerm;57448;51.490;5.436;2022-12-29T11:38:55;54.63;50.24;66.74;;
70077;Laerm;57448;51.490;5.436;2022-12-29T11:41:50;57.04;49.45;73.39;;
70077;Laerm;57448;51.490;5.436;2022-12-29T11:44:44;55.05;51.16;65.01;;
70077;Laerm;57448;51.490;5.436;2022-12-29T11:47:35;53.86;49.24;71.27;;
70077;Laerm;57448;51.490;5.436;2022-12-29T11:50:27;53.61;48.91;61.46;;
70077;Laerm;57448;51.490;5.436;2022-12-29T11:53:20;52.30;48.29;59.00;;
70077;Laerm;57448;51.490;5.436;2022-12-29T11:56:14;53.06;49.34;64.98;;
70077;Laerm;57448;51.490;5.436;2022-12-29T11:59:23;56.87;50.16;69.40;;
70077;Laerm;57448;51.490;5.436;2022-12-29T12:05:33;55.22;49.66;77.17;;
70077;Laerm;57448;51.490;5.436;2022-12-29T12:08:28;54.18;48.33;75.97;;
70077;Laerm;57448;51.490;5.436;2022-12-29T12:11:23;53.86;49.29;66.27;;
70077;Laerm;57448;51.490;5.436;2022-12-29T12:14:17;53.19;48.73;70.23;;
70077;Laerm;57448;51.490;5.436;2022-12-29T12:17:09;52.55;47.98;61.01;;
70077;Laerm;57448;51.490;5.436;2022-12-29T12:20:05;52.71;48.25;65.66;;
70077;Laerm;57448;51.490;5.436;2022-12-29T12:23:06;56.72;48.54;74.08;;
70077;Laerm;57448;51.490;5.436;2022-12-29T12:26:00;56.50;48.51;69.63;;
70077;Laerm;57448;51.490;5.436;2022-12-29T12:28:53;53.22;48.31;67.09;;
70077;Laerm;57448;51.490;5.436;2022-12-29T12:31:47;52.47;48.92;63.18;;
70077;Laerm;57448;51.490;5.436;2022-12-29T12:34:41;53.94;49.32;68.08;;
70077;Laerm;57448;51.490;5.436;2022-12-29T12:37:37;55.81;48.73;67.84;;
70077;Laerm;57448;51.490;5.436;2022-12-29T12:40:38;54.32;49.71;75.42;;
70077;Laerm;57448;51.490;5.436;2022-12-29T12:43:35;54.19;48.36;78.87;;
70077;Laerm;57448;51.490;5.436;2022-12-29T12:46:40;53.46;48.95;68.51;;
70077;Laerm;57448;51.490;5.436;2022-12-29T12:49:50;55.22;49.78;71.96;;
70077;Laerm;57448;51.490;5.436;2022-12-29T12:53:00;53.89;48.11;67.39;;
70077;Laerm;57448;51.490;5.436;2022-12-29T12:56:03;53.84;48.82;69.87;;
70077;Laerm;57448;51.490;5.436;2022-12-29T12:58:59;54.96;48.68;70.26;;
70077;Laerm;57448;51.490;5.436;2022-12-29T13:01:54;55.74;49.07;66.51;;
70077;Laerm;57448;51.490;5.436;2022-12-29T13:04:52;55.94;48.53;68.36;;
70077;Laerm;57448;51.490;5.436;2022-12-29T13:07:50;52.44;47.61;65.54;;
70077;Laerm;57448;51.490;5.436;2022-12-29T13:10:47;51.33;47.18;61.70;;
70077;Laerm;57448;51.490;5.436;2022-12-29T13:13:47;54.25;46.59;67.47;;
70077;Laerm;57448;51.490;5.436;2022-12-29T13:16:44;51.63;46.44;61.89;;
70077;Laerm;57448;51.490;5.436;2022-12-29T13:19:40;57.18;48.10;74.13;;
70077;Laerm;57448;51.490;5.436;2022-12-29T13:22:32;52.57;47.64;63.86;;
70077;Laerm;57448;51.490;5.436;2022-12-29T13:25:30;54.45;49.45;64.66;;
70077;Laerm;57448;51.490;5.436;2022-12-29T13:28:25;53.19;49.91;60.96;;
70077;Laerm;57448;51.490;5.436;2022-12-29T13:31:19;52.98;49.72;57.78;;
70077;Laerm;57448;51.490;5.436;2022-12-29T13:34:15;53.49;49.17;62.01;;
70077;Laerm;57448;51.490;5.436;2022-12-29T13:37:11;54.42;50.40;63.84;;
70077;Laerm;57448;51.490;5.436;2022-12-29T13:40:10;53.80;50.37;62.66;;
70077;Laerm;57448;51.490;5.436;2022-12-29T13:43:01;52.91;48.91;64.76;;
70077;Laerm;57448;51.490;5.436;2022-12-29T13:45:56;53.98;49.98;62.72;;
70077;Laerm;57448;51.490;5.436;2022-12-29T13:48:50;63.44;49.11;98.96;;
70077;Laerm;57448;51.490;5.436;2022-12-29T13:51:42;53.95;50.01;62.12;;
70077;Laerm;57448;51.490;5.436;2022-12-29T13:54:39;54.27;50.36;62.22;;
70077;Laerm;57448;51.490;5.436;2022-12-29T13:57:35;53.54;49.41;61.12;;
70077;Laerm;57448;51.490;5.436;2022-12-29T14:00:32;53.85;49.99;67.13;;
70077;Laerm;57448;51.490;5.436;2022-12-29T14:03:36;52.77;48.70;61.61;;
70077;Laerm;57448;51.490;5.436;2022-12-29T14:06:33;52.63;48.68;64.96;;
70077;Laerm;57448;51.490;5.436;2022-12-29T14:09:40;52.59;48.78;60.98;;
70077;Laerm;57448;51.490;5.436;2022-12-29T14:12:32;52.46;49.15;58.63;;
70077;Laerm;57448;51.490;5.436;2022-12-29T14:15:26;56.91;48.85;72.23;;
70077;Laerm;57448;51.490;5.436;2022-12-29T14:18:17;52.46;48.72;64.33;;
70077;Laerm;57448;51.490;5.436;2022-12-29T14:21:10;56.55;48.76;72.28;;
70077;Laerm;57448;51.490;5.436;2022-12-29T14:24:35;54.54;47.95;66.67;;
70077;Laerm;57448;51.490;5.436;2022-12-29T14:27:42;51.53;48.16;56.66;;
70077;Laerm;57448;51.490;5.436;2022-12-29T14:30:46;54.97;48.33;67.43;;
70077;Laerm;57448;51.490;5.436;2022-12-29T14:33:37;51.87;48.02;64.61;;
70077;Laerm;57448;51.490;5.436;2022-12-29T14:36:33;52.62;48.11;72.07;;
70077;Laerm;57448;51.490;5.436;2022-12-29T14:39:28;51.89;47.71;59.75;;
70077;Laerm;57448;51.490;5.436;2022-12-29T14:42:20;49.98;46.34;59.18;;
70077;Laerm;57448;51.490;5.436;2022-12-29T14:45:23;50.11;46.03;65.23;;
70077;Laerm;57448;51.490;5.436;2022-12-29T14:48:27;53.88;46.68;69.29;;
70077;Laerm;57448;51.490;5.436;2022-12-29T14:51:31;55.23;45.86;72.10;;
70077;Laerm;57448;51.490;5.436;2022-12-29T14:57:41;50.98;47.75;56.79;;
70077;Laerm;57448;51.490;5.436;2022-12-29T15:00:34;52.99;47.45;62.62;;
70077;Laerm;57448;51.490;5.436;2022-12-29T15:03:28;51.82;48.19;60.96;;
70077;Laerm;57448;51.490;5.436;2022-12-29T15:06:19;51.79;47.88;56.63;;
70077;Laerm;57448;51.490;5.436;2022-12-29T15:09:17;51.13;47.93;64.51;;
70077;Laerm;57448;51.490;5.436;2022-12-29T15:12:14;52.14;48.33;59.27;;
70077;Laerm;57448;51.490;5.436;2022-12-29T15:15:21;53.17;49.83;62.10;;
70077;Laerm;57448;51.490;5.436;2022-12-29T15:18:14;53.80;49.48;69.31;;
70077;Laerm;57448;51.490;5.436;2022-12-29T15:21:05;52.79;49.12;57.32;;
70077;Laerm;57448;51.490;5.436;2022-12-29T15:23:56;53.71;49.07;70.09;;
70077;Laerm;57448;51.490;5.436;2022-12-29T15:26:49;53.68;49.50;69.07;;
70077;Laerm;57448;51.490;5.436;2022-12-29T15:29:41;53.17;49.35;67.34;;
70077;Laerm;57448;51.490;5.436;2022-12-29T15:32:40;52.26;48.24;60.76;;
70077;Laerm;57448;51.490;5.436;2022-12-29T15:35:33;52.85;49.05;71.67;;
70077;Laerm;57448;51.490;5.436;2022-12-29T15:38:25;51.81;47.96;61.94;;
70077;Laerm;57448;51.490;5.436;2022-12-29T15:41:26;52.30;48.66;60.66;;
70077;Laerm;57448;51.490;5.436;2022-12-29T15:44:20;53.14;49.13;67.69;;
70077;Laerm;57448;51.490;5.436;2022-12-29T15:47:11;55.16;47.26;69.88;;
70077;Laerm;57448;51.490;5.436;2022-12-29T15:50:08;55.50;47.21;73.02;;
70077;Laerm;57448;51.490;5.436;2022-12-29T15:53:00;50.62;46.62;55.05;;
70077;Laerm;57448;51.490;5.436;2022-12-29T15:55:51;50.00;46.56;55.57;;
70077;Laerm;57448;51.490;5.436;2022-12-29T15:58:43;50.68;46.58;66.69;;
70077;Laerm;57448;51.490;5.436;2022-12-29T16:01:35;50.70;46.56;75.82;;
70077;Laerm;57448;51.490;5.436;2022-12-29T16:04:27;51.06;46.61;69.54;;
70077;Laerm;57448;51.490;5.436;2022-12-29T16:07:27;53.95;47.49;66.75;;
70077;Laerm;57448;51.490;5.436;2022-12-29T16:10:21;50.73;46.67;58.79;;
70077;Laerm;57448;51.490;5.436;2022-12-29T16:13:14;63.75;47.39;95.35;;
70077;Laerm;57448;51.490;5.436;2022-12-29T16:16:09;51.56;47.33;59.06;;
70077;Laerm;57448;51.490;5.436;2022-12-29T16:19:05;52.12;47.84;58.74;;
70077;Laerm;57448;51.490;5.436;2022-12-29T16:22:00;53.09;48.87;63.48;;
70077;Laerm;57448;51.490;5.436;2022-12-29T16:24:54;53.03;48.96;63.56;;